Time;durP1;ratioP1;P1;durP2;ratioP2;P2;SDS_P1;SDS_P2;PMS_P1;PMS_P2;Temp;Humidity;BMP_temperature;BMP_pressure;BME280_temperature;BME280_humidity;BME280_pressure;Samples;Min_cycle;Max_cycle;Signal;HPM_P1;HPM_P2
2022/11/23 00:03:14;;;;;;;8.38;2.88;;;;;;;6.52;100.00;99426.47;10469888;28;20129;-82
2022/11/23 00:08:14;;;;;;;9.80;3.50;;;;;;;6.52;100.00;99418.69;10466748;28;20045;-84
2022/11/23 00:13:15;;;;;;;13.85;3.40;;;;;;;6.53;100.00;99422.16;10444378;28;20099;-82
2022/11/23 00:18:15;;;;;;;16.77;5.25;;;;;;;6.51;100.00;99427.31;10476507;28;20076;-83
2022/11/23 00:23:16;;;;;;;9.45;2.40;;;;;;;6.67;100.00;99421.00;10458711;28;20045;-83
2022/11/23 00:28:16;;;;;;;12.18;3.63;;;;;;;6.72;100.00;99411.66;10481062;28;20044;-82
2022/11/23 00:33:17;;;;;;;10.90;4.30;;;;;;;6.66;100.00;99415.75;10473743;28;20507;-82
2022/11/23 00:38:17;;;;;;;16.30;4.30;;;;;;;6.69;100.00;99429.75;10452511;28;20037;-81
2022/11/23 00:43:18;;;;;;;12.45;3.72;;;;;;;6.79;100.00;99432.72;10457662;28;20049;-83
2022/11/23 00:48:19;;;;;;;5.72;2.67;;;;;;;6.88;100.00;99430.47;10447778;28;20115;-83
2022/11/23 00:53:19;;;;;;;10.80;2.13;;;;;;;6.84;100.00;99428.59;10446079;28;20072;-82
2022/11/23 00:58:20;;;;;;;12.88;4.93;;;;;;;6.81;100.00;99428.47;10481031;28;20130;-82
2022/11/23 01:03:20;;;;;;;10.38;3.20;;;;;;;6.89;100.00;99437.47;10484247;28;20523;-83
2022/11/23 01:08:21;;;;;;;11.75;3.10;;;;;;;7.01;100.00;99435.34;10465356;28;20044;-82
2022/11/23 01:13:22;;;;;;;7.50;3.50;;;;;;;7.00;100.00;99450.91;10456300;28;20504;-81
2022/11/23 01:18:23;;;;;;;15.18;5.22;;;;;;;7.05;100.00;99446.75;10467132;28;20044;-83
2022/11/23 01:23:23;;;;;;;12.65;4.55;;;;;;;7.06;100.00;99448.53;10484195;28;20040;-81
2022/11/23 01:28:24;;;;;;;12.43;3.75;;;;;;;7.04;100.00;99450.19;10463952;28;20046;-82
2022/11/23 01:33:24;;;;;;;7.13;2.25;;;;;;;7.04;100.00;99451.06;10473344;28;20036;-81
2022/11/23 01:38:25;;;;;;;9.18;2.72;;;;;;;7.09;100.00;99460.75;10470563;28;20049;-82
2022/11/23 01:43:26;;;;;;;12.05;2.85;;;;;;;7.00;100.00;99462.19;10429260;28;20505;-83
2022/11/23 01:48:37;;;;;;;6.60;2.65;;;;;;;7.09;100.00;99464.28;10463601;28;20044;-83
2022/11/23 01:53:37;;;;;;;7.88;1.95;;;;;;;7.07;100.00;99460.72;10473058;28;20090;-82
2022/11/23 01:58:38;;;;;;;11.40;3.42;;;;;;;7.12;100.00;99473.88;10461744;28;20132;-83
2022/11/23 02:03:39;;;;;;;5.40;2.22;;;;;;;7.12;100.00;99486.91;10453887;28;20041;-82
2022/11/23 02:08:40;;;;;;;9.57;2.20;;;;;;;7.08;100.00;99485.91;10469331;28;20060;-82
2022/11/23 02:13:41;;;;;;;10.90;4.22;;;;;;;7.15;100.00;99481.81;10449560;28;20504;-84
2022/11/23 02:18:43;;;;;;;7.63;2.63;;;;;;;7.17;100.00;99477.56;10432873;28;20037;-83
2022/11/23 02:23:54;;;;;;;4.75;2.42;;;;;;;7.23;100.00;99493.41;10451652;28;20043;-83
2022/11/23 02:29:03;;;;;;;30.05;4.07;;;;;;;7.19;100.00;99488.91;10447826;28;20477;-83
2022/11/23 02:34:04;;;;;;;8.73;2.78;;;;;;;7.18;100.00;99492.34;10439469;28;20029;-83
2022/11/23 02:39:11;;;;;;;6.60;2.60;;;;;;;7.19;100.00;99483.72;10442764;28;20043;-84
2022/11/23 02:44:41;;;;;;;5.70;3.00;;;;;;;7.12;100.00;99487.81;10434233;28;20056;-84
2022/11/23 02:49:47;;;;;;;9.80;2.83;;;;;;;7.17;100.00;99485.38;10440741;28;20052;-85
2022/11/23 02:54:51;;;;;;;18.42;4.25;;;;;;;7.15;100.00;99487.03;10448668;28;20086;-86
2022/11/23 02:59:56;;;;;;;9.23;2.80;;;;;;;7.10;100.00;99492.06;10470084;28;20123;-84
2022/11/23 03:04:57;;;;;;;10.07;3.13;;;;;;;7.06;100.00;99492.75;10462169;28;20037;-84
2022/11/23 03:10:01;;;;;;;12.48;3.20;;;;;;;7.09;99.89;99485.09;10466186;28;20040;-84
2022/11/23 03:15:05;;;;;;;11.03;3.70;;;;;;;7.01;100.00;99484.75;10464026;28;20120;-85
2022/11/23 03:20:06;;;;;;;13.52;4.43;;;;;;;7.08;98.99;99490.22;10459174;28;20028;-84
2022/11/23 03:25:07;;;;;;;9.95;3.65;;;;;;;7.07;99.61;99493.63;10443300;28;20550;-84
2022/11/23 03:30:08;;;;;;;12.23;3.72;;;;;;;7.06;99.67;99497.97;10476687;28;20052;-85
2022/11/23 03:35:08;;;;;;;16.92;4.18;;;;;;;7.04;99.29;99497.88;10453081;28;20132;-86
2022/11/23 03:40:09;;;;;;;11.60;4.28;;;;;;;7.10;98.42;99494.66;10470068;28;20055;-85
2022/11/23 03:45:10;;;;;;;9.10;4.40;;;;;;;7.10;98.80;99504.16;10457609;28;20501;-84
2022/11/23 03:50:11;;;;;;;8.60;3.05;;;;;;;7.06;98.42;99505.78;10453343;28;20064;-85
2022/11/23 03:55:11;;;;;;;17.73;5.28;;;;;;;7.05;98.55;99509.19;10460646;28;20469;-84
2022/11/23 04:00:12;;;;;;;12.25;2.88;;;;;;;7.07;98.23;99511.84;10458514;28;20045;-84
2022/11/23 04:05:12;;;;;;;12.55;3.20;;;;;;;7.12;97.85;99510.31;10442644;28;20048;-84
2022/11/23 04:10:17;;;;;;;11.77;3.53;;;;;;;7.09;98.02;99518.91;10441997;28;20503;-84
2022/11/23 04:15:17;;;;;;;9.85;3.25;;;;;;;7.00;97.98;99511.59;10429630;28;20071;-84
2022/11/23 04:20:18;;;;;;;13.80;4.10;;;;;;;7.02;98.26;99509.94;10462056;28;20125;-86
2022/11/23 04:25:18;;;;;;;12.00;3.53;;;;;;;7.12;95.75;99512.91;10453858;28;20069;-87
2022/11/23 04:30:19;;;;;;;11.77;3.78;;;;;;;7.10;95.50;99509.38;10439251;28;20039;-85
2022/11/23 04:35:21;;;;;;;13.75;6.00;;;;;;;7.14;94.71;99516.47;10458674;28;20078;-85
2022/11/23 04:40:21;;;;;;;8.65;3.95;;;;;;;7.13;94.61;99504.28;10448639;28;20052;-84
2022/11/23 04:45:22;;;;;;;12.93;3.45;;;;;;;7.08;94.24;99498.91;10471010;28;20159;-85
2022/11/23 04:50:22;;;;;;;13.30;3.40;;;;;;;7.07;94.77;99511.84;10456389;28;20040;-84
2022/11/23 04:55:23;;;;;;;12.25;3.40;;;;;;;6.97;95.59;99510.59;10486824;28;20408;-84
2022/11/23 05:00:23;;;;;;;10.55;4.75;;;;;;;7.00;95.31;99506.41;10467567;28;20083;-82
2022/11/23 05:05:24;;;;;;;14.45;4.28;;;;;;;6.98;96.15;99505.44;10481330;28;20045;-83
2022/11/23 05:10:24;;;;;;;9.35;4.28;;;;;;;6.98;95.87;99495.03;10463683;28;20471;-86
2022/11/23 05:15:25;;;;;;;103.47;54.83;;;;;;;6.85;96.75;99496.28;10470288;28;20044;-82
2022/11/23 05:20:26;;;;;;;18.70;5.40;;;;;;;6.85;97.04;99497.97;10439218;28;20052;-84
2022/11/23 05:25:27;;;;;;;16.83;3.40;;;;;;;6.87;96.22;99494.63;10465533;28;20575;-84
2022/11/23 05:30:27;;;;;;;10.52;3.08;;;;;;;6.91;96.38;99490.41;10478309;28;20151;-84
2022/11/23 05:35:28;;;;;;;11.95;3.65;;;;;;;6.85;96.74;99500.56;10458811;28;20443;-84
2022/11/23 05:40:29;;;;;;;10.38;3.72;;;;;;;6.81;97.43;99501.28;10452150;28;20075;-86
2022/11/23 05:45:30;;;;;;;16.80;4.00;;;;;;;6.76;97.22;99504.56;10452920;28;20074;-85
2022/11/23 05:50:33;;;;;;;11.52;5.18;;;;;;;6.75;97.72;99510.59;10452638;28;20057;-83
2022/11/23 05:55:33;;;;;;;21.13;5.07;;;;;;;6.78;97.86;99506.34;10441463;28;20466;-81
2022/11/23 06:00:34;;;;;;;10.10;2.80;;;;;;;6.81;97.73;99502.19;10445679;28;20040;-81
2022/11/23 06:05:35;;;;;;;18.60;4.22;;;;;;;6.73;98.01;99506.19;10441922;28;20116;-83
2022/11/23 06:10:35;;;;;;;19.85;5.25;;;;;;;6.60;98.60;99509.97;10445267;28;20076;-85
2022/11/23 06:15:36;;;;;;;19.77;4.63;;;;;;;6.58;98.55;99516.81;10439920;28;20045;-82
2022/11/23 06:20:36;;;;;;;16.35;6.00;;;;;;;6.61;98.16;99510.03;10416133;28;20089;-87
2022/11/23 06:25:38;;;;;;;14.73;4.57;;;;;;;6.68;97.34;99515.50;10433756;28;20147;-85
2022/11/23 06:30:38;;;;;;;14.32;3.88;;;;;;;6.67;97.79;99514.59;10433388;28;20043;-86
2022/11/23 06:35:39;;;;;;;16.92;3.40;;;;;;;6.63;97.66;99514.41;10453590;28;20025;-84
2022/11/23 06:40:39;;;;;;;13.55;3.15;;;;;;;6.36;98.21;99507.25;10423336;28;20560;-82
2022/11/23 06:45:40;;;;;;;8.30;2.80;;;;;;;6.09;98.82;99521.69;10454450;28;20040;-85
2022/11/23 06:50:42;;;;;;;14.25;4.93;;;;;;;5.78;99.86;99527.19;10459578;28;20048;-84
2022/11/23 06:55:42;;;;;;;14.00;3.90;;;;;;;5.53;100.00;99531.25;10455177;28;20496;-83
2022/11/23 07:00:43;;;;;;;22.67;3.88;;;;;;;5.47;100.00;99528.38;10454583;28;20044;-83
2022/11/23 07:05:43;;;;;;;9.40;3.50;;;;;;;5.28;100.00;99543.09;10442944;28;20045;-83
2022/11/23 07:10:44;;;;;;;9.10;3.47;;;;;;;5.06;100.00;99551.53;10447654;28;20179;-85
2022/11/23 07:15:45;;;;;;;15.45;3.78;;;;;;;4.81;100.00;99559.00;10451304;28;20135;-84
2022/11/23 07:20:45;;;;;;;17.92;4.18;;;;;;;4.57;100.00;99566.41;10459685;28;20037;-79
2022/11/23 07:25:46;;;;;;;12.35;4.18;;;;;;;4.61;100.00;99583.03;10459742;28;20036;-82
2022/11/23 07:30:48;;;;;;;19.00;5.90;;;;;;;4.71;100.00;99590.47;10455883;28;20136;-82
2022/11/23 07:35:49;;;;;;;12.90;4.40;;;;;;;4.59;100.00;99595.88;10450529;28;20153;-84
2022/11/23 07:40:50;;;;;;;21.92;7.32;;;;;;;4.54;100.00;99607.72;10459354;28;20147;-82
2022/11/23 07:45:50;;;;;;;18.35;4.03;;;;;;;4.49;100.00;99604.00;10436174;28;20052;-84
2022/11/23 07:50:52;;;;;;;17.02;5.25;;;;;;;4.57;100.00;99610.47;10486102;28;20163;-83
2022/11/23 07:55:57;;;;;;;15.57;4.72;;;;;;;4.51;100.00;99608.47;10393755;28;20040;-86
2022/11/23 08:00:58;;;;;;;16.25;4.38;;;;;;;4.61;100.00;99603.75;10433836;28;20086;-84
2022/11/23 08:05:58;;;;;;;12.27;3.17;;;;;;;4.61;100.00;99616.72;10450795;28;20036;-85
2022/11/23 08:10:59;;;;;;;9.02;3.38;;;;;;;4.74;100.00;99613.94;10456591;28;20086;-82
2022/11/23 08:16:00;;;;;;;11.95;3.92;;;;;;;4.89;100.00;99623.31;10441660;28;20041;-80
2022/11/23 08:21:00;;;;;;;11.48;3.17;;;;;;;5.07;100.00;99618.13;10461574;28;20037;-81
2022/11/23 08:26:02;;;;;;;8.55;3.30;;;;;;;5.26;100.00;99620.81;10456153;28;20450;-83
2022/11/23 08:31:10;;;;;;;8.75;3.22;;;;;;;5.53;99.94;99615.19;10443817;28;20128;-82
2022/11/23 08:36:10;;;;;;;12.65;4.63;;;;;;;5.67;97.90;99620.13;10445377;28;20044;-80
2022/11/23 08:41:11;;;;;;;12.55;4.60;;;;;;;5.87;95.52;99618.50;10460791;28;20443;-83
2022/11/23 08:46:12;;;;;;;10.80;4.25;;;;;;;6.00;94.37;99620.88;10479873;28;20044;-81
2022/11/23 08:51:12;;;;;;;11.65;2.85;;;;;;;6.04;93.80;99611.50;10416932;28;20047;-84
2022/11/23 08:56:13;;;;;;;11.98;2.70;;;;;;;6.27;91.17;99616.84;10445261;28;20029;-84
2022/11/23 09:01:15;;;;;;;19.13;5.38;;;;;;;6.44;90.37;99612.41;10459309;28;20072;-85
2022/11/23 09:06:15;;;;;;;11.57;5.80;;;;;;;6.68;89.80;99606.50;10444674;28;20129;-85
2022/11/23 09:11:16;;;;;;;10.27;2.15;;;;;;;7.02;86.68;99610.53;10459813;28;20098;-86
2022/11/23 09:16:16;;;;;;;7.32;2.85;;;;;;;7.21;86.13;99619.97;10464337;28;20123;-88
2022/11/23 09:21:17;;;;;;;22.05;4.80;;;;;;;7.48;83.38;99611.50;10463279;28;20044;-85
2022/11/23 09:26:17;;;;;;;10.90;2.65;;;;;;;7.63;82.98;99606.03;10480307;28;20157;-87
2022/11/23 09:31:18;;;;;;;11.75;3.10;;;;;;;7.82;79.82;99599.81;10453467;28;20132;-83
2022/11/23 09:36:19;;;;;;;11.77;2.08;;;;;;;8.15;78.69;99599.31;10427012;28;20079;-84
2022/11/23 09:41:48;;;;;;;13.75;2.10;;;;;;;10.24;70.92;99599.16;10445137;28;20044;-84
2022/11/23 09:47:15;;;;;;;7.82;2.33;;;;;;;12.90;58.87;99585.22;10442900;28;20587;-86
2022/11/23 09:52:20;;;;;;;8.43;3.22;;;;;;;14.60;53.52;99576.19;10442924;28;20033;-89
2022/11/23 09:57:23;;;;;;;9.52;2.92;;;;;;;15.42;50.97;99568.16;10449511;28;20554;-85
2022/11/23 10:02:25;;;;;;;7.88;2.28;;;;;;;15.27;48.33;99564.53;10466903;28;20447;-85
2022/11/23 10:07:34;;;;;;;9.38;3.83;;;;;;;15.03;49.32;99541.53;10477231;28;20568;-87
2022/11/23 10:12:38;;;;;;;7.93;1.70;;;;;;;15.92;46.33;99540.38;10475300;28;20041;-83
2022/11/23 10:17:49;;;;;;;10.02;2.72;;;;;;;16.19;46.49;99537.81;10417692;28;20048;-87
2022/11/23 10:23:00;;;;;;;12.23;2.10;;;;;;;16.38;45.08;99534.34;10417438;28;20188;-87
2022/11/23 10:28:01;;;;;;;9.95;2.97;;;;;;;16.56;44.63;99530.00;10398393;28;20072;-87
2022/11/23 10:33:30;;;;;;;11.87;2.67;;;;;;;16.24;45.88;99530.78;10384639;28;20045;-86
2022/11/23 10:38:31;;;;;;;13.65;2.97;;;;;;;16.18;46.21;99521.13;10419341;28;20279;-85
2022/11/23 10:43:46;;;;;;;9.27;1.90;;;;;;;17.13;42.52;99508.03;10423867;28;20048;-86
2022/11/23 10:48:46;;;;;;;6.07;1.85;;;;;;;17.24;42.69;99502.75;10441315;28;20074;-88
2022/11/23 10:53:52;;;;;;;20.75;9.75;;;;;;;17.20;42.49;99504.50;10428895;28;20468;-81
2022/11/23 10:58:53;;;;;;;5.63;2.42;;;;;;;14.49;47.87;99498.88;10463121;28;20048;-81
2022/11/23 11:03:55;;;;;;;10.95;3.78;;;;;;;12.79;54.29;99490.50;10462510;28;20037;-81
2022/11/23 11:08:57;;;;;;;7.00;2.37;;;;;;;12.36;55.19;99492.38;10442840;28;20037;-81
2022/11/23 11:14:15;;;;;;;4.45;1.17;;;;;;;12.58;55.72;99485.78;10418481;28;20049;-82
2022/11/23 11:19:31;;;;;;;13.55;4.13;;;;;;;12.16;56.45;99493.78;10437959;28;20519;-81
2022/11/23 11:24:36;;;;;;;7.10;1.90;;;;;;;11.72;59.92;99484.13;10465563;28;20044;-81
2022/11/23 11:29:42;;;;;;;15.20;2.55;;;;;;;11.69;60.59;99486.69;10440154;28;20101;-81
2022/11/23 11:34:46;;;;;;;9.63;1.30;;;;;;;11.93;59.60;99481.91;10442478;28;20497;-81
2022/11/23 11:39:51;;;;;;;4.65;2.22;;;;;;;12.41;57.85;99472.34;10461233;28;20105;-81
2022/11/23 11:44:52;;;;;;;6.70;3.40;;;;;;;11.82;59.44;99479.06;10478955;28;20028;-81
2022/11/23 11:49:53;;;;;;;8.13;2.15;;;;;;;11.44;59.88;99459.09;10463822;28;20392;-81
2022/11/23 11:55:01;;;;;;;9.23;2.20;;;;;;;11.25;60.82;99452.53;10469555;28;20119;-83
2022/11/23 12:00:06;;;;;;;7.40;1.75;;;;;;;12.34;57.98;99440.75;10487177;28;20040;-83
2022/11/23 12:05:24;;;;;;;16.38;4.45;;;;;;;13.33;53.80;99424.75;10431391;28;20033;-83
2022/11/23 12:10:28;;;;;;;6.28;1.70;;;;;;;13.38;52.80;99414.31;10447417;28;20044;-83
2022/11/23 12:15:41;;;;;;;16.42;6.80;;;;;;;12.62;55.21;99411.47;10461005;28;20127;-83
2022/11/23 12:21:08;;;;;;;6.03;2.17;;;;;;;13.15;54.24;99404.38;10419333;28;20501;-80
2022/11/23 12:26:27;;;;;;;7.78;2.70;;;;;;;13.89;51.68;99399.16;10392083;28;20045;-84
2022/11/23 12:31:38;;;;;;;8.55;4.25;;;;;;;14.39;49.13;99390.00;10407738;28;20048;-84
2022/11/23 12:37:00;;;;;;;3.83;1.63;;;;;;;13.47;51.47;99396.94;10406685;28;20045;-85
2022/11/23 12:42:34;;;;;;;6.57;1.38;;;;;;;12.62;53.31;99375.59;10431336;28;20045;-83
2022/11/23 12:47:46;;;;;;;15.88;1.88;;;;;;;12.53;56.02;99391.22;10446752;28;20036;-79
2022/11/23 12:52:56;;;;;;;7.18;1.50;;;;;;;12.36;53.77;99387.41;10411809;28;20049;-84
2022/11/23 12:58:05;;;;;;;4.40;1.42;;;;;;;11.82;55.00;99396.09;10405024;28;20120;-81
2022/11/23 13:03:06;;;;;;;2.70;1.25;;;;;;;10.51;59.56;99391.53;10435048;28;20045;-81
2022/11/23 13:08:15;;;;;;;3.58;1.25;;;;;;;10.02;63.24;99396.38;10446169;28;20045;-82
2022/11/23 13:13:25;;;;;;;1.45;1.10;;;;;;;9.89;64.91;99387.31;10445167;28;20124;-83
2022/11/23 13:18:46;;;;;;;7.95;3.25;;;;;;;9.63;64.78;99385.75;10445955;28;20408;-81
2022/11/23 13:23:46;;;;;;;11.07;3.50;;;;;;;9.54;66.19;99380.28;10460906;28;20083;-82
2022/11/23 13:28:48;;;;;;;6.90;1.60;;;;;;;9.50;66.70;99381.03;10444031;28;20065;-80
2022/11/23 13:33:50;;;;;;;3.27;1.33;;;;;;;9.50;66.11;99381.03;10426726;28;20044;-81
2022/11/23 13:38:50;;;;;;;3.10;1.20;;;;;;;9.50;67.66;99387.16;10428492;28;20326;-82
2022/11/23 13:43:51;;;;;;;6.63;1.52;;;;;;;9.37;67.93;99383.31;10453019;28;20037;-80
2022/11/23 13:48:52;;;;;;;4.43;1.50;;;;;;;9.32;67.45;99382.28;10448219;28;20127;-82
2022/11/23 13:54:18;;;;;;;4.22;1.50;;;;;;;9.19;69.70;99382.75;10445921;28;20488;-79
2022/11/23 13:59:21;;;;;;;4.95;2.22;;;;;;;9.05;69.28;99393.69;10450686;28;20032;-82
2022/11/23 14:04:22;;;;;;;3.95;1.35;;;;;;;9.00;70.15;99403.09;10484244;28;20080;-81
2022/11/23 14:09:28;;;;;;;6.95;1.85;;;;;;;8.97;69.75;99410.84;10447289;28;20083;-83
2022/11/23 14:14:51;;;;;;;8.77;1.48;;;;;;;8.98;70.38;99423.03;10463740;28;20041;-92
2022/11/23 14:20:19;;;;;;;7.90;4.22;;;;;;;8.57;75.15;99436.56;10427967;28;20131;-88
2022/11/23 14:25:51;;;;;;;3.90;1.30;;;;;;;7.92;81.95;99443.03;10467470;28;20029;-88
2022/11/23 14:31:05;;;;;;;7.60;2.47;;;;;;;7.42;88.43;99453.38;10483698;28;20045;-86
2022/11/23 14:36:17;;;;;;;5.05;1.50;;;;;;;7.18;93.90;99466.31;10476853;28;20043;-84
2022/11/23 14:41:27;;;;;;;9.88;1.38;;;;;;;6.92;98.21;99468.78;10450126;28;20048;-85
2022/11/23 14:46:32;;;;;;;19.45;11.90;;;;;;;6.73;100.00;99478.44;10415394;28;20045;-85
2022/11/23 14:51:33;;;;;;;7.82;2.38;;;;;;;6.65;100.00;99490.25;10426412;28;20122;-85
2022/11/23 14:56:38;;;;;;;10.50;3.00;;;;;;;6.58;100.00;99501.22;10449793;28;20089;-87
2022/11/23 15:01:39;;;;;;;10.35;3.05;;;;;;;6.42;100.00;99526.56;10454217;28;20115;-79
2022/11/23 15:06:41;;;;;;;8.43;3.10;;;;;;;6.35;100.00;99536.66;10445278;28;20047;-91
2022/11/23 15:11:42;;;;;;;5.28;2.03;;;;;;;6.27;100.00;99559.69;10443531;28;20120;-84
2022/11/23 15:16:43;;;;;;;9.88;2.60;;;;;;;6.23;100.00;99581.16;10479157;28;20484;-82
2022/11/23 15:21:43;;;;;;;9.50;3.75;;;;;;;6.26;100.00;99590.00;10481284;28;20455;-90
2022/11/23 15:26:45;;;;;;;6.78;2.72;;;;;;;6.31;100.00;99579.78;10438231;28;20051;-91
2022/11/23 15:31:46;;;;;;;;;;;;;;;6.23;100.00;99588.94;10437201;28;20037;-85
2022/11/23 15:36:47;;;;;;;8.52;2.65;;;;;;;6.18;100.00;99606.94;10472819;28;19920;-86
2022/11/23 15:41:49;;;;;;;5.78;2.90;;;;;;;6.20;100.00;99607.00;10422943;28;20036;-92
2022/11/23 15:46:52;;;;;;;9.57;3.70;;;;;;;6.19;100.00;99606.13;10439196;28;20032;-90
2022/11/23 15:51:58;;;;;;;7.78;3.75;;;;;;;6.16;100.00;99631.97;10472142;28;20041;-85
2022/11/23 15:57:00;;;;;;;9.13;4.75;;;;;;;6.12;100.00;99636.13;10458604;28;20088;-90
2022/11/23 16:02:01;;;;;;;5.15;2.63;;;;;;;6.16;100.00;99632.84;10421828;28;20060;-86
2022/11/23 16:07:26;;;;;;;7.13;3.08;;;;;;;6.13;100.00;99630.09;10442089;28;20037;-80
2022/11/23 16:12:28;;;;;;;8.13;4.18;;;;;;;6.11;100.00;99631.75;10439001;28;20140;-80
2022/11/23 16:17:28;;;;;;;7.40;3.20;;;;;;;6.06;100.00;99625.44;10424428;28;20388;-84
2022/11/23 16:22:30;;;;;;;8.38;3.17;;;;;;;6.07;100.00;99597.78;10400498;28;20116;-81
2022/11/23 16:27:31;;;;;;;6.47;3.45;;;;;;;6.04;100.00;99634.88;10405711;28;20072;-82
2022/11/23 16:32:31;;;;;;;11.20;6.15;;;;;;;6.05;100.00;99669.56;10437855;28;20041;-83
2022/11/23 16:37:34;;;;;;;8.82;4.05;;;;;;;6.04;100.00;99660.84;10434520;28;20485;-85
2022/11/23 16:42:36;;;;;;;8.98;4.22;;;;;;;6.02;100.00;99675.47;10447735;28;20037;-85
2022/11/23 16:47:49;;;;;;;11.07;5.20;;;;;;;6.02;100.00;99678.06;10438966;28;20044;-86
2022/11/23 16:52:49;;;;;;;6.55;3.10;;;;;;;6.06;100.00;99676.53;10435100;28;20051;-85
2022/11/23 16:57:50;;;;;;;8.82;4.03;;;;;;;6.02;100.00;99694.56;10401157;28;20408;-85
2022/11/23 17:02:50;;;;;;;9.10;4.60;;;;;;;6.04;100.00;99683.34;10405525;28;20521;-85
2022/11/23 17:07:51;;;;;;;11.77;5.45;;;;;;;5.95;100.00;99692.47;10433080;28;20110;-85
2022/11/23 17:12:52;;;;;;;12.55;5.20;;;;;;;5.90;100.00;99709.53;10448122;28;20175;-88
2022/11/23 17:17:53;;;;;;;10.93;5.20;;;;;;;5.94;100.00;99723.53;10418162;28;20444;-90
2022/11/23 17:22:59;;;;;;;8.85;4.85;;;;;;;5.96;100.00;99733.19;10420851;28;20095;-89
2022/11/23 17:28:00;;;;;;;10.13;5.90;;;;;;;5.98;100.00;99733.25;10445310;28;20033;-89
2022/11/23 17:33:01;;;;;;;10.57;6.95;;;;;;;6.01;100.00;99749.03;10443495;28;20533;-90
2022/11/23 17:38:01;;;;;;;8.98;5.35;;;;;;;6.02;100.00;99745.59;10435376;28;20120;-92
2022/11/23 17:43:02;;;;;;;8.98;4.72;;;;;;;6.02;100.00;99753.41;10457913;28;20072;-90
2022/11/23 17:48:03;;;;;;;8.93;4.70;;;;;;;5.92;100.00;99770.22;10451365;28;20120;-91
2022/11/23 17:53:03;;;;;;;9.68;4.70;;;;;;;5.81;100.00;99780.06;10441885;28;20448;-89
2022/11/23 17:58:04;;;;;;;9.30;4.18;;;;;;;5.67;100.00;99787.19;10452381;28;20041;-89
2022/11/23 18:03:05;;;;;;;7.60;4.28;;;;;;;5.54;100.00;99784.81;10466012;28;20095;-87
2022/11/23 18:08:06;;;;;;;10.65;4.28;;;;;;;5.42;100.00;99795.44;10459770;28;20033;-87
2022/11/23 18:13:06;;;;;;;10.90;4.68;;;;;;;5.35;100.00;99788.16;10444059;28;20393;-90
2022/11/23 18:18:07;;;;;;;7.22;4.35;;;;;;;5.21;100.00;99806.47;10452170;28;20068;-85
2022/11/23 18:23:08;;;;;;;16.90;4.60;;;;;;;5.16;100.00;99815.72;10470495;28;20128;-88
2022/11/23 18:28:08;;;;;;;9.80;4.97;;;;;;;5.13;100.00;99823.34;10457344;28;20044;-88
2022/11/23 18:33:09;;;;;;;9.10;5.25;;;;;;;4.90;100.00;99835.09;10471021;28;20122;-88
2022/11/23 18:38:09;;;;;;;9.77;5.13;;;;;;;4.92;100.00;99829.19;10440095;28;20043;-90
2022/11/23 18:43:10;;;;;;;11.45;6.85;;;;;;;5.01;100.00;99836.56;10422804;28;20040;-90
2022/11/23 18:48:12;;;;;;;8.55;4.05;;;;;;;4.98;100.00;99839.88;10428618;28;20041;-89
2022/11/23 18:53:12;;;;;;;9.90;6.30;;;;;;;5.05;100.00;99850.59;10470698;28;20036;-87
2022/11/23 18:58:13;;;;;;;13.43;6.50;;;;;;;4.91;100.00;99847.25;10469185;28;20073;-88
2022/11/23 19:03:14;;;;;;;18.33;6.93;;;;;;;4.88;100.00;99865.25;10449832;28;20071;-88
2022/11/23 19:08:16;;;;;;;11.93;7.10;;;;;;;4.88;100.00;99858.34;10415982;28;20497;-89
2022/11/23 19:13:16;;;;;;;10.00;4.88;;;;;;;4.79;100.00;99861.34;10443047;28;20145;-90
2022/11/23 19:18:17;;;;;;;13.68;7.43;;;;;;;4.86;100.00;99878.13;10466709;28;20067;-89
2022/11/23 19:23:17;;;;;;;7.93;4.72;;;;;;;4.90;100.00;99884.38;10437517;28;20568;-90
2022/11/23 19:28:18;;;;;;;11.60;5.28;;;;;;;4.76;100.00;99892.28;10424541;28;20051;-88
2022/11/23 19:33:18;;;;;;;15.25;6.88;;;;;;;4.78;100.00;99908.81;10467165;28;20488;-89
2022/11/23 19:38:19;;;;;;;12.02;6.13;;;;;;;4.71;100.00;99932.63;10450635;28;20041;-81
2022/11/23 19:43:19;;;;;;;24.52;8.15;;;;;;;4.78;100.00;99928.66;10439867;28;21092;-90
2022/11/23 19:48:21;;;;;;;12.60;5.68;;;;;;;4.69;100.00;99927.31;10477268;28;20105;-89
2022/11/23 19:53:23;;;;;;;9.00;4.95;;;;;;;4.69;100.00;99945.47;10474413;28;20037;-91
2022/11/23 19:58:23;;;;;;;9.93;4.82;;;;;;;4.68;100.00;99950.59;10476962;28;20089;-91
2022/11/23 20:03:24;;;;;;;25.30;7.07;;;;;;;4.74;100.00;99956.13;10429272;28;20060;-90
2022/11/23 20:08:25;;;;;;;21.52;8.68;;;;;;;4.95;100.00;99971.09;10431966;28;20048;-90
2022/11/23 20:13:25;;;;;;;21.52;7.63;;;;;;;5.10;100.00;99973.63;10417763;28;20044;-90
2022/11/23 20:18:26;;;;;;;15.48;6.10;;;;;;;5.27;100.00;99959.00;10453927;28;20036;-84
2022/11/23 20:23:27;;;;;;;15.02;6.30;;;;;;;5.25;100.00;99969.28;10445526;28;20412;-84
2022/11/23 20:28:29;;;;;;;14.93;6.80;;;;;;;5.19;100.00;99979.31;10457768;28;20037;-85
2022/11/23 20:33:30;;;;;;;51.65;30.42;;;;;;;5.14;100.00;99975.59;10451811;28;20047;-84
2022/11/23 20:38:35;;;;;;;21.10;7.68;;;;;;;4.98;100.00;99985.09;10464243;28;20029;-85
2022/11/23 20:43:35;;;;;;;18.33;8.02;;;;;;;4.98;100.00;99990.28;10446698;28;20037;-85
2022/11/23 20:48:36;;;;;;;16.60;10.43;;;;;;;4.90;100.00;100001.06;10463430;28;20064;-87
2022/11/23 20:53:36;;;;;;;21.70;7.15;;;;;;;5.03;100.00;100016.50;10461063;28;20045;-87
2022/11/23 20:58:37;;;;;;;16.88;6.25;;;;;;;5.06;100.00;100023.53;10460114;28;20124;-87
2022/11/23 21:03:39;;;;;;;18.52;9.50;;;;;;;5.25;100.00;100028.06;10453539;28;20403;-87
2022/11/23 21:08:40;;;;;;;18.63;6.55;;;;;;;5.47;100.00;100027.53;10451825;28;20079;-84
2022/11/23 21:19:00;;;;;;;21.52;7.40;;;;;;;5.94;100.00;100032.59;10430225;28;20033;-85
2022/11/23 21:24:01;;;;;;;17.58;6.93;;;;;;;5.93;100.00;100038.63;10442829;28;20021;-84
2022/11/23 21:29:03;;;;;;;27.15;7.88;;;;;;;6.01;100.00;100048.66;10442095;28;20033;-84
2022/11/23 21:34:09;;;;;;;21.17;8.55;;;;;;;5.99;100.00;100049.34;10443069;28;20057;-87
2022/11/23 21:39:10;;;;;;;25.50;8.23;;;;;;;5.97;100.00;100067.44;10460938;28;20044;-90
2022/11/23 21:44:10;;;;;;;26.35;7.43;;;;;;;6.05;100.00;100057.47;10453952;28;20040;-90
2022/11/23 21:49:11;;;;;;;25.70;7.32;;;;;;;6.05;100.00;100065.28;10484043;28;20043;-89
2022/11/23 21:54:14;;;;;;;24.40;7.95;;;;;;;5.81;100.00;100070.91;10451256;28;20041;-89
2022/11/23 21:59:14;;;;;;;29.02;8.02;;;;;;;5.83;100.00;100077.09;10483457;28;20123;-89
2022/11/23 22:04:15;;;;;;;29.60;7.05;;;;;;;5.69;100.00;100085.81;10485558;28;20059;-89
2022/11/23 22:09:16;;;;;;;21.98;7.65;;;;;;;5.54;100.00;100089.38;10481543;28;20040;-88
2022/11/23 22:14:18;;;;;;;12.70;5.90;;;;;;;5.39;100.00;100094.63;10483495;28;20036;-89
2022/11/23 22:19:19;;;;;;;26.15;8.43;;;;;;;5.34;100.00;100092.56;10480737;28;20517;-88
2022/11/23 22:24:21;;;;;;;27.92;7.82;;;;;;;5.43;100.00;100103.44;10484772;28;20036;-88
2022/11/23 22:29:21;;;;;;;;;;;;;;;5.46;100.00;100108.81;10448972;28;20032;-88
2022/11/23 22:34:22;;;;;;;23.83;9.15;;;;;;;5.46;100.00;100116.59;10481380;28;19928;-88
2022/11/23 22:39:22;;;;;;;28.10;7.40;;;;;;;5.53;100.00;100110.94;10444780;28;20094;-86
2022/11/23 22:44:23;;;;;;;34.35;10.45;;;;;;;5.62;100.00;100120.03;10443999;28;20048;-88
2022/11/23 22:49:24;;;;;;;31.23;7.30;;;;;;;5.75;100.00;100137.22;10465990;28;20048;-90
2022/11/23 22:54:24;;;;;;;25.90;8.13;;;;;;;5.68;100.00;100131.69;10481637;28;20068;-89
2022/11/23 22:59:25;;;;;;;31.08;7.68;;;;;;;5.67;100.00;100144.56;10444244;28;20041;-86
2022/11/23 23:04:25;;;;;;;26.33;7.55;;;;;;;5.73;100.00;100150.09;10461630;28;20047;-90
2022/11/23 23:09:26;;;;;;;19.30;5.78;;;;;;;5.80;100.00;100156.53;10476422;28;20044;-84
2022/11/23 23:14:27;;;;;;;22.98;5.70;;;;;;;5.76;100.00;100152.00;10482490;28;20040;-84
2022/11/23 23:19:27;;;;;;;16.13;5.22;;;;;;;5.82;100.00;100158.41;10478638;28;20032;-85
2022/11/23 23:24:28;;;;;;;25.08;5.85;;;;;;;5.96;100.00;100163.47;10481675;28;20029;-83
2022/11/23 23:29:29;;;;;;;20.00;5.38;;;;;;;5.78;100.00;100166.81;10461871;28;20488;-83